Time;durP1;ratioP1;P1;durP2;ratioP2;P2;SDS_P1;SDS_P2;PMS_P1;PMS_P2;Temp;Humidity;BMP_temperature;BMP_pressure;BME280_temperature;BME280_humidity;BME280_pressure;Samples;Min_cycle;Max_cycle;Signal;HPM_P1;HPM_P2
2022/07/09 00:00:33;;;;;;;15.95;10.00;;;;;;;11.88;98.71;99609.69;5113734;28;20020;-72
2022/07/09 00:02:59;;;;;;;16.35;9.93;;;;;;;11.76;98.32;99599.25;5104187;28;20307;-72
2022/07/09 00:05:24;;;;;;;17.80;10.10;;;;;;;11.65;98.29;99601.13;5104196;28;20023;-72
2022/07/09 00:07:50;;;;;;;15.75;9.73;;;;;;;11.71;98.96;99597.53;5104098;28;20068;-72
2022/07/09 00:10:15;;;;;;;15.60;9.88;;;;;;;11.75;99.50;99599.25;5104062;28;20046;-72
2022/07/09 00:12:40;;;;;;;16.50;10.40;;;;;;;11.71;99.42;99598.41;5103983;28;20216;-72
2022/07/09 00:15:06;;;;;;;19.08;9.70;;;;;;;11.67;99.25;99596.69;5104314;28;20016;-72
2022/07/09 00:17:32;;;;;;;18.77;10.82;;;;;;;11.68;99.32;99593.16;5104013;28;20101;-72
2022/07/09 00:19:57;;;;;;;22.00;10.57;;;;;;;11.69;99.32;99592.28;5104091;28;20024;-72
2022/07/09 00:22:23;;;;;;;16.48;9.98;;;;;;;11.70;99.82;99595.78;5103968;28;20319;-72
2022/07/09 00:24:48;;;;;;;17.38;9.20;;;;;;;11.57;99.25;99589.72;5104279;28;20020;-72
2022/07/09 00:27:14;;;;;;;17.13;8.82;;;;;;;11.42;97.95;99584.53;5103714;28;20046;-72
2022/07/09 00:29:39;;;;;;;18.65;10.65;;;;;;;11.29;99.48;99587.31;5103929;28;20354;-72
2022/07/09 00:32:05;;;;;;;14.93;9.93;;;;;;;11.34;99.61;99583.75;5103780;28;20039;-72
2022/07/09 00:34:31;;;;;;;16.90;9.50;;;;;;;11.36;99.42;99579.31;5103933;28;20095;-72
2022/07/09 00:36:56;;;;;;;14.73;10.05;;;;;;;11.39;99.80;99579.28;5103906;28;20050;-72
2022/07/09 00:39:22;;;;;;;17.27;10.35;;;;;;;11.40;100.00;99582.81;5103899;28;20073;-72
2022/07/09 00:41:47;;;;;;;18.55;10.85;;;;;;;11.39;100.00;99578.44;5106284;28;20023;-72
2022/07/09 00:44:12;;;;;;;16.60;10.85;;;;;;;11.35;100.00;99572.31;5107719;28;20044;-72
2022/07/09 00:46:38;;;;;;;18.38;9.90;;;;;;;11.25;99.81;99573.25;5107729;28;20019;-72
2022/07/09 00:49:05;;;;;;;16.70;10.10;;;;;;;11.24;100.00;99576.81;5107722;28;20068;-72
2022/07/09 00:51:31;;;;;;;18.98;11.10;;;;;;;11.22;100.00;99570.66;5107630;28;20023;-72
2022/07/09 00:53:58;;;;;;;17.52;10.93;;;;;;;11.23;100.00;99574.16;5107565;28;20024;-72
2022/07/09 00:56:24;;;;;;;21.48;10.20;;;;;;;11.21;100.00;99557.47;5107512;28;20031;-72
2022/07/09 00:58:50;;;;;;;18.38;10.13;;;;;;;11.18;100.00;99558.38;5114509;28;20047;-72
2022/07/09 01:01:15;;;;;;;16.48;10.75;;;;;;;11.08;99.94;99561.97;5122951;28;20024;-72
2022/07/09 01:03:41;;;;;;;17.40;10.23;;;;;;;11.08;100.00;99561.97;5107426;28;20027;-72
2022/07/09 01:06:07;;;;;;;22.88;11.95;;;;;;;11.04;100.00;99562.84;5107373;28;20031;-72
2022/07/09 01:08:32;;;;;;;18.50;10.48;;;;;;;11.02;100.00;99563.75;5107511;28;20308;-72
2022/07/09 01:10:59;;;;;;;17.25;10.40;;;;;;;11.02;100.00;99564.66;5107297;28;20259;-72
2022/07/09 01:13:24;;;;;;;17.83;10.25;;;;;;;11.01;100.00;99560.25;5107103;28;20242;-72
2022/07/09 01:15:50;;;;;;;19.35;10.75;;;;;;;10.98;100.00;99549.72;5107172;28;20024;-72
2022/07/09 01:18:15;;;;;;;19.95;10.55;;;;;;;10.93;100.00;99548.91;5089040;28;20035;-72
2022/07/09 01:20:40;;;;;;;19.42;10.38;;;;;;;10.86;100.00;99545.41;5107048;28;20024;-72
2022/07/09 01:23:07;;;;;;;19.67;10.88;;;;;;;10.80;100.00;99544.59;5106981;28;20016;-72
2022/07/09 01:25:43;;;;;;;16.23;9.88;;;;;;;10.67;100.00;99542.91;5106737;28;20027;-72
2022/07/09 01:28:09;;;;;;;16.02;9.95;;;;;;;10.62;100.00;99540.31;5106882;28;20316;-72
2022/07/09 01:30:36;;;;;;;15.90;10.57;;;;;;;10.69;100.00;99549.03;5106873;28;20027;-72
2022/07/09 01:33:02;;;;;;;17.25;10.60;;;;;;;10.75;100.00;99546.38;5106728;28;20028;-72
2022/07/09 01:35:28;;;;;;;19.10;11.05;;;;;;;10.80;100.00;99555.13;5106828;28;20020;-72
2022/07/09 01:37:54;;;;;;;17.63;10.07;;;;;;;10.83;100.00;99544.56;5106710;28;20362;-72
2022/07/09 01:40:20;;;;;;;16.42;10.18;;;;;;;10.80;100.00;99545.44;5106720;28;20024;-72
2022/07/09 01:42:46;;;;;;;21.77;10.05;;;;;;;10.68;100.00;99535.00;5106655;28;20083;-72
2022/07/09 01:45:11;;;;;;;16.08;9.68;;;;;;;10.68;100.00;99534.13;5106648;28;20193;-72
2022/07/09 01:47:37;;;;;;;15.45;9.73;;;;;;;10.62;100.00;99536.78;5106604;28;20065;-72
2022/07/09 01:50:03;;;;;;;19.15;9.88;;;;;;;10.56;100.00;99534.19;5106505;28;20121;-72
2022/07/09 01:52:29;;;;;;;14.77;9.02;;;;;;;10.54;100.00;99535.97;5105151;28;20085;-72
2022/07/09 01:54:54;;;;;;;16.58;9.82;;;;;;;10.54;100.00;99531.56;5106418;28;20027;-72
2022/07/09 01:57:20;;;;;;;13.13;9.48;;;;;;;10.51;100.00;99525.44;5109772;28;20031;-72
2022/07/09 01:59:45;;;;;;;14.55;9.82;;;;;;;10.41;100.00;99527.22;5115573;28;20028;-72
2022/07/09 02:02:10;;;;;;;16.58;9.95;;;;;;;10.42;100.00;99526.38;5113061;28;20319;-72
2022/07/09 02:04:36;;;;;;;18.35;9.95;;;;;;;10.43;100.00;99527.22;5106239;28;20023;-72
2022/07/09 02:07:02;;;;;;;18.58;10.15;;;;;;;10.36;100.00;99531.66;5106213;28;20128;-72
2022/07/09 02:09:27;;;;;;;17.02;10.13;;;;;;;10.30;100.00;99525.53;5106183;28;20020;-72
2022/07/09 02:11:52;;;;;;;18.10;9.60;;;;;;;10.29;100.00;99529.06;5106065;28;20267;-72
2022/07/09 02:14:18;;;;;;;17.13;10.35;;;;;;;10.30;100.00;99528.16;5106013;28;20061;-72
2022/07/09 02:16:43;;;;;;;17.65;10.30;;;;;;;10.32;100.00;99523.78;5105997;28;20031;-72
2022/07/09 02:19:09;;;;;;;16.55;10.40;;;;;;;10.31;100.00;99522.00;5105996;28;20399;-72
2022/07/09 02:21:35;;;;;;;15.68;10.00;;;;;;;10.19;100.00;99516.81;5105894;28;20020;-72
2022/07/09 02:24:01;;;;;;;16.58;10.68;;;;;;;9.97;100.00;99521.22;5105864;28;20062;-72
2022/07/09 02:26:27;;;;;;;14.73;9.27;;;;;;;10.06;100.00;99522.97;5105857;28;20044;-72
2022/07/09 02:28:54;;;;;;;14.23;8.65;;;;;;;10.03;100.00;99526.47;5105703;28;20085;-72
2022/07/09 02:31:19;;;;;;;13.73;8.93;;;;;;;9.90;100.00;99518.63;5105793;28;20031;-72
2022/07/09 02:33:44;;;;;;;14.32;9.98;;;;;;;9.87;100.00;99530.03;5105568;28;20020;-72
2022/07/09 02:36:10;;;;;;;20.60;10.80;;;;;;;9.89;100.00;99532.66;5105597;28;20024;-72
2022/07/09 02:38:35;;;;;;;14.55;9.30;;;;;;;9.97;100.00;99541.41;5105589;28;20016;-72
2022/07/09 02:41:01;;;;;;;24.08;10.27;;;;;;;9.96;100.00;99534.38;5105462;28;20026;-72
2022/07/09 02:43:27;;;;;;;15.93;9.75;;;;;;;9.86;100.00;99527.38;5105517;28;20200;-72
2022/07/09 02:45:55;;;;;;;13.88;9.63;;;;;;;9.91;100.00;99530.91;5105667;28;20020;-72
2022/07/09 02:48:25;;;;;;;13.18;8.60;;;;;;;9.89;100.00;99535.28;5105389;28;20024;-72
2022/07/09 02:50:50;;;;;;;14.02;9.48;;;;;;;9.95;100.00;99533.53;5105467;28;20034;-72
2022/07/09 02:53:15;;;;;;;13.45;8.55;;;;;;;9.94;100.00;99531.75;5105203;28;20291;-72
2022/07/09 02:55:41;;;;;;;11.68;8.63;;;;;;;9.80;100.00;99538.81;5105176;28;20024;-72
2022/07/09 02:58:06;;;;;;;20.13;8.95;;;;;;;9.77;100.00;99537.91;5111743;28;20094;-72
2022/07/09 03:00:32;;;;;;;15.00;9.43;;;;;;;9.81;100.00;99537.91;5113778;28;20019;-72
2022/07/09 03:02:57;;;;;;;16.83;9.60;;;;;;;9.89;100.00;99543.16;5106626;28;20022;-72
2022/07/09 03:05:23;;;;;;;17.95;10.00;;;;;;;9.94;100.00;99541.41;5104775;28;20026;-72
2022/07/09 03:07:48;;;;;;;15.30;9.07;;;;;;;9.86;100.00;99543.16;5104983;28;20043;-72
2022/07/09 03:10:13;;;;;;;18.25;8.73;;;;;;;9.64;100.00;99537.09;5104974;28;20020;-72
2022/07/09 03:12:40;;;;;;;12.82;8.00;;;;;;;9.40;100.00;99534.47;5104884;28;20261;-72
2022/07/09 03:15:07;;;;;;;15.18;9.20;;;;;;;9.31;100.00;99546.75;5104845;28;20019;-72
2022/07/09 03:17:32;;;;;;;14.38;9.18;;;;;;;9.41;100.00;99543.22;5104787;28;20391;-72
2022/07/09 03:19:57;;;;;;;13.68;9.02;;;;;;;9.50;100.00;99543.22;5104829;28;20023;-72
2022/07/09 03:22:23;;;;;;;12.05;8.35;;;;;;;9.55;100.00;99541.50;5104711;28;20023;-72
2022/07/09 03:24:48;;;;;;;13.32;9.23;;;;;;;9.61;100.00;99544.06;5104711;28;20028;-72
2022/07/09 03:27:13;;;;;;;14.32;9.30;;;;;;;9.61;100.00;99537.09;5104426;28;20044;-72
2022/07/09 03:29:39;;;;;;;14.35;9.13;;;;;;;9.59;100.00;99537.97;5104646;28;20047;-72
2022/07/09 03:32:05;;;;;;;12.85;9.00;;;;;;;9.64;100.00;99541.44;5104547;28;20091;-72
2022/07/09 03:34:30;;;;;;;12.40;8.82;;;;;;;9.59;100.00;99532.72;5104625;28;20020;-72
2022/07/09 03:36:55;;;;;;;18.90;9.50;;;;;;;9.60;100.00;99534.47;5104578;28;20354;-72
2022/07/09 03:39:21;;;;;;;14.60;9.02;;;;;;;9.63;100.00;99534.44;5104453;28;20031;-72
2022/07/09 03:41:47;;;;;;;14.07;9.02;;;;;;;9.62;100.00;99540.59;5104447;28;20058;-72
2022/07/09 03:44:12;;;;;;;15.15;8.65;;;;;;;9.62;100.00;99532.72;5104403;28;20020;-72
2022/07/09 03:46:37;;;;;;;13.05;9.35;;;;;;;9.57;100.00;99539.72;5104400;28;20020;-72
2022/07/09 03:49:03;;;;;;;14.63;8.80;;;;;;;9.62;100.00;99536.19;5104286;28;20024;-72
2022/07/09 03:51:28;;;;;;;15.73;8.32;;;;;;;9.64;100.00;99537.09;5104271;28;20249;-72
2022/07/09 03:53:54;;;;;;;15.35;9.38;;;;;;;9.67;100.00;99536.19;5104281;28;20024;-72
2022/07/09 03:56:22;;;;;;;15.65;8.63;;;;;;;9.65;100.00;99538.81;5104380;28;20032;-72
2022/07/09 03:58:48;;;;;;;12.23;8.23;;;;;;;9.69;100.00;99542.34;5110940;28;20020;-72
2022/07/09 04:01:13;;;;;;;17.70;9.07;;;;;;;9.70;100.00;99541.44;5122461;28;20259;-72
2022/07/09 04:03:39;;;;;;;10.95;7.55;;;;;;;9.66;100.00;99542.34;5104830;28;20215;-72
2022/07/09 04:06:05;;;;;;;11.80;7.90;;;;;;;9.60;100.00;99539.72;5104127;28;20065;-72
2022/07/09 04:08:30;;;;;;;14.32;8.77;;;;;;;9.52;100.00;99538.88;5104171;28;20016;-72
2022/07/09 04:10:56;;;;;;;13.07;8.80;;;;;;;9.50;100.00;99538.88;5104086;28;20024;-72
2022/07/09 04:13:21;;;;;;;12.35;8.40;;;;;;;9.59;100.00;99548.47;5104007;28;20020;-72
2022/07/09 04:15:47;;;;;;;14.00;9.02;;;;;;;9.63;100.00;99550.22;5104929;28;20094;-72
2022/07/09 04:18:15;;;;;;;12.93;8.25;;;;;;;9.67;100.00;99551.97;5108259;28;20023;-71
2022/07/09 04:20:41;;;;;;;14.00;9.20;;;;;;;9.80;100.00;99548.44;5108403;28;20216;-71
2022/07/09 04:23:06;;;;;;;14.73;9.13;;;;;;;9.89;100.00;99554.56;5108288;28;20319;-71
2022/07/09 04:25:32;;;;;;;14.60;8.63;;;;;;;9.96;100.00;99555.41;5108154;28;20020;-70
2022/07/09 04:27:59;;;;;;;12.73;8.85;;;;;;;10.02;100.00;99545.78;5108003;28;20027;-71
2022/07/09 04:30:27;;;;;;;12.27;8.40;;;;;;;10.10;100.00;99545.78;5108018;28;20016;-71
2022/07/09 04:32:53;;;;;;;13.75;8.13;;;;;;;10.18;100.00;99546.63;5108086;28;20070;-71
2022/07/09 04:35:18;;;;;;;17.50;9.30;;;;;;;10.21;100.00;99552.75;5107958;28;20028;-71
2022/07/09 04:37:44;;;;;;;15.63;8.80;;;;;;;10.39;100.00;99551.81;5108827;28;20022;-71
2022/07/09 04:40:10;;;;;;;14.30;8.80;;;;;;;11.01;99.90;99557.59;5126921;28;20046;-71
2022/07/09 04:42:36;;;;;;;14.02;8.85;;;;;;;11.95;95.95;99560.38;5127743;28;20046;-71
2022/07/09 04:45:02;;;;;;;14.55;8.50;;;;;;;12.36;92.10;99553.75;5126870;28;20341;-71
2022/07/09 04:47:27;;;;;;;11.95;7.63;;;;;;;12.33;90.60;99552.91;5127409;28;20019;-71
2022/07/09 04:49:53;;;;;;;13.32;8.15;;;;;;;12.46;90.54;99555.38;5127568;28;20027;-71
2022/07/09 04:52:19;;;;;;;12.27;7.57;;;;;;;12.82;89.01;99554.91;5127721;28;20023;-71
2022/07/09 04:54:46;;;;;;;11.50;7.03;;;;;;;13.44;86.02;99553.16;5127797;28;20019;-71
2022/07/09 04:57:12;;;;;;;12.20;7.22;;;;;;;13.91;83.22;99550.53;5126288;28;20095;-71
2022/07/09 04:59:37;;;;;;;12.02;7.60;;;;;;;14.42;80.30;99546.94;5123872;28;20031;-71
2022/07/09 05:02:03;;;;;;;9.40;6.88;;;;;;;15.01;78.42;99554.50;5125693;28;20368;-71
2022/07/09 05:04:28;;;;;;;13.63;7.32;;;;;;;14.93;78.52;99551.13;5127462;28;20023;-71
2022/07/09 05:06:53;;;;;;;11.38;6.80;;;;;;;15.28;77.42;99553.00;5127479;28;20028;-71
2022/07/09 05:09:19;;;;;;;12.10;6.45;;;;;;;15.81;75.58;99550.78;5127445;28;20072;-71
2022/07/09 05:11:44;;;;;;;9.88;6.80;;;;;;;16.12;74.61;99551.72;5127272;28;20038;-71
2022/07/09 05:14:10;;;;;;;9.82;6.22;;;;;;;16.36;73.68;99551.03;5127177;28;20092;-71
2022/07/09 05:16:35;;;;;;;9.98;6.60;;;;;;;16.37;74.54;99550.13;5127336;28;20069;-71
2022/07/09 05:19:00;;;;;;;9.18;6.57;;;;;;;17.30;72.60;99558.91;5127230;28;20023;-71
2022/07/09 05:21:26;;;;;;;10.57;6.60;;;;;;;17.52;70.04;99557.31;5127184;28;20283;-72
2022/07/09 05:23:52;;;;;;;11.00;6.60;;;;;;;17.61;70.40;99559.66;5127514;28;20024;-71
2022/07/09 05:26:17;;;;;;;8.73;6.32;;;;;;;17.45;71.10;99548.66;5126805;28;20043;-71
2022/07/09 05:28:42;;;;;;;10.07;6.43;;;;;;;17.03;72.35;99540.19;5126931;28;20026;-71
2022/07/09 05:31:08;;;;;;;13.63;6.15;;;;;;;17.06;72.78;99540.09;5127122;28;20299;-71
2022/07/09 05:33:33;;;;;;;9.82;6.60;;;;;;;17.15;72.84;99539.81;5127474;28;20015;-71
2022/07/09 05:35:58;;;;;;;9.55;6.38;;;;;;;17.55;73.29;99549.22;5127295;28;20215;-71
2022/07/09 05:38:24;;;;;;;17.58;7.28;;;;;;;17.81;71.24;99541.25;5127225;28;20027;-70
2022/07/09 05:40:50;;;;;;;9.00;6.18;;;;;;;17.79;72.49;99543.09;5124414;28;20329;-71
2022/07/09 05:43:16;;;;;;;10.75;6.70;;;;;;;18.20;71.42;99546.06;5126406;28;20019;-71
2022/07/09 05:45:41;;;;;;;9.68;6.18;;;;;;;18.40;70.75;99550.69;5126713;28;20027;-70
2022/07/09 05:48:07;;;;;;;9.43;6.65;;;;;;;18.80;70.07;99553.63;5126979;28;20030;-71
2022/07/09 05:50:32;;;;;;;10.82;6.97;;;;;;;19.36;67.60;99549.66;5126674;28;20031;-71
2022/07/09 05:52:58;;;;;;;12.05;6.85;;;;;;;19.83;66.43;99556.59;5126613;28;20365;-71
2022/07/09 05:55:24;;;;;;;8.25;6.00;;;;;;;20.98;63.85;99552.38;5126859;28;20061;-71
2022/07/09 05:57:49;;;;;;;10.38;6.38;;;;;;;21.53;61.15;99547.91;5123199;28;20024;-71
2022/07/09 06:00:15;;;;;;;19.33;7.15;;;;;;;22.04;59.75;99553.38;5126206;28;20072;-71
2022/07/09 06:02:40;;;;;;;9.80;6.00;;;;;;;22.68;58.47;99551.78;5125627;28;20323;-71
2022/07/09 06:05:06;;;;;;;10.18;5.93;;;;;;;22.76;57.73;99544.19;5116003;28;20258;-71
2022/07/09 06:07:31;;;;;;;11.95;6.72;;;;;;;23.37;57.07;99552.44;5106262;28;20031;-71
2022/07/09 06:09:56;;;;;;;8.90;5.82;;;;;;;24.00;54.99;99555.00;5106109;28;20016;-71
2022/07/09 06:12:22;;;;;;;11.90;5.97;;;;;;;24.39;54.67;99549.91;5106026;28;20015;-71
2022/07/09 06:14:47;;;;;;;8.20;5.38;;;;;;;24.44;53.79;99545.13;5106062;28;20031;-71
2022/07/09 06:17:13;;;;;;;8.45;6.10;;;;;;;25.04;53.51;99551.25;5106018;28;20016;-71
2022/07/09 06:19:38;;;;;;;9.55;5.68;;;;;;;25.46;52.66;99548.50;5105977;28;20019;-71
2022/07/09 06:22:04;;;;;;;8.50;5.30;;;;;;;25.64;51.93;99552.72;5105950;28;20253;-71
2022/07/09 06:24:29;;;;;;;10.60;5.28;;;;;;;25.30;52.12;99543.22;5105880;28;20042;-71
2022/07/09 06:26:55;;;;;;;10.45;4.75;;;;;;;26.12;51.58;99544.06;5105734;28;20255;-71
2022/07/09 06:29:21;;;;;;;12.35;4.90;;;;;;;26.29;49.60;99534.81;5105810;28;20027;-71
2022/07/09 06:31:47;;;;;;;9.98;5.13;;;;;;;25.94;51.42;99529.06;5105681;28;20311;-71
2022/07/09 06:34:12;;;;;;;7.93;4.50;;;;;;;26.32;51.16;99538.16;5105702;28;20020;-71
2022/07/09 06:36:38;;;;;;;9.90;5.15;;;;;;;26.66;51.10;99540.28;5105664;28;20024;-71
2022/07/09 06:41:48;;;;;;;10.07;4.78;;;;;;;27.56;47.60;99535.50;5105610;28;20030;-71
2022/07/09 06:44:13;;;;;;;10.73;3.85;;;;;;;28.67;47.18;99545.84;5105494;28;20023;-71
2022/07/09 06:46:38;;;;;;;8.70;4.50;;;;;;;29.02;46.81;99552.03;5105460;28;20130;-71
2022/07/09 06:49:04;;;;;;;7.75;4.13;;;;;;;29.13;46.10;99548.50;5105404;28;20342;-71
2022/07/09 06:51:29;;;;;;;10.45;4.15;;;;;;;29.26;45.38;99543.81;5105332;28;20020;-71
2022/07/09 06:53:55;;;;;;;10.07;4.35;;;;;;;29.15;45.27;99536.56;5105334;28;20351;-71
2022/07/09 06:56:21;;;;;;;8.50;3.78;;;;;;;29.35;46.36;99542.22;5105365;28;20020;-71
2022/07/09 06:58:46;;;;;;;9.55;3.92;;;;;;;29.41;45.95;99536.28;5105435;28;20019;-71
2022/07/09 07:01:11;;;;;;;7.35;3.10;;;;;;;30.10;44.87;99544.88;5105124;28;20197;-71
2022/07/09 07:03:37;;;;;;;7.18;3.10;;;;;;;30.10;43.38;99541.31;5105120;28;20068;-71
2022/07/09 07:06:02;;;;;;;9.98;3.47;;;;;;;30.41;42.13;99530.44;5105074;28;20361;-71
2022/07/09 07:08:28;;;;;;;7.50;3.13;;;;;;;30.44;42.48;99530.16;5105017;28;20020;-71
2022/07/09 07:10:53;;;;;;;7.50;3.53;;;;;;;30.49;43.57;99532.47;5105045;28;20215;-71
2022/07/09 07:13:18;;;;;;;8.43;2.75;;;;;;;30.60;42.31;99532.44;5105107;28;20028;-71
2022/07/09 07:15:44;;;;;;;7.72;2.58;;;;;;;31.01;43.20;99546.84;5104856;28;20027;-71
2022/07/09 07:18:10;;;;;;;4.75;2.58;;;;;;;31.20;42.71;99536.06;5104911;28;20024;-71
2022/07/09 07:20:36;;;;;;;5.82;2.70;;;;;;;30.13;43.01;99535.59;5104855;28;20104;-71
2022/07/09 07:23:01;;;;;;;7.50;2.60;;;;;;;29.38;43.18;99525.69;5104835;28;20118;-71
2022/07/09 07:25:26;;;;;;;7.47;2.28;;;;;;;30.76;41.60;99538.28;5104611;28;20238;-71
2022/07/09 07:27:52;;;;;;;6.90;2.35;;;;;;;31.57;40.54;99540.97;5104710;28;20323;-71
2022/07/09 07:30:17;;;;;;;5.45;2.30;;;;;;;30.90;40.04;99521.59;5104651;28;20026;-71
2022/07/09 07:32:43;;;;;;;4.10;2.08;;;;;;;30.75;39.84;99522.97;5104556;28;20027;-70
2022/07/09 07:35:08;;;;;;;6.10;1.88;;;;;;;29.43;42.01;99513.47;5104826;28;20023;-70
2022/07/09 07:37:34;;;;;;;11.68;2.50;;;;;;;29.41;40.93;99510.03;5097227;28;20333;-70
2022/07/09 07:39:59;;;;;;;6.30;2.13;;;;;;;29.96;42.30;99517.19;5124883;28;20087;-70
2022/07/09 07:42:24;;;;;;;7.43;2.70;;;;;;;29.61;41.61;99511.09;5124816;28;20019;-70
2022/07/09 07:44:50;;;;;;;10.60;2.67;;;;;;;29.85;41.90;99519.91;5124759;28;20024;-70
2022/07/09 07:47:15;;;;;;;8.90;2.45;;;;;;;29.38;42.61;99512.97;5124849;28;20086;-70
2022/07/09 07:49:41;;;;;;;13.70;3.03;;;;;;;30.16;41.35;99519.06;5124741;28;20023;-70
2022/07/09 07:52:06;;;;;;;6.53;2.25;;;;;;;31.47;38.88;99527.31;5124626;28;20020;-70
2022/07/09 07:54:33;;;;;;;3.20;1.35;;;;;;;31.67;38.48;99528.22;5124617;28;20094;-70
2022/07/09 07:56:58;;;;;;;4.47;1.70;;;;;;;32.31;36.67;99518.53;5124665;28;20064;-70
2022/07/09 07:59:24;;;;;;;5.72;1.83;;;;;;;32.27;38.02;99512.50;5124685;28;20094;-70
2022/07/09 08:01:49;;;;;;;7.40;2.03;;;;;;;32.10;38.18;99521.41;5124537;28;20015;-70
2022/07/09 08:04:15;;;;;;;7.68;1.98;;;;;;;30.46;39.79;99511.00;5124558;28;20057;-70
2022/07/09 08:06:40;;;;;;;3.17;1.40;;;;;;;29.65;38.96;99490.88;5124569;28;20034;-70
2022/07/09 08:09:05;;;;;;;7.40;1.30;;;;;;;30.01;38.49;99504.06;5124489;28;20027;-70
2022/07/09 08:11:31;;;;;;;4.68;1.42;;;;;;;29.85;39.06;99499.06;5124469;28;20043;-70
2022/07/09 08:13:56;;;;;;;4.63;1.27;;;;;;;31.14;39.37;99522.16;5124414;28;20024;-70
2022/07/09 08:16:22;;;;;;;5.90;1.70;;;;;;;31.53;37.90;99526.75;5124526;28;20334;-70
2022/07/09 08:18:48;;;;;;;7.63;1.95;;;;;;;31.42;39.15;99524.16;5124643;28;20019;-70
2022/07/09 08:21:14;;;;;;;8.43;2.20;;;;;;;31.74;39.00;99519.34;5124398;28;20030;-70
2022/07/09 08:23:51;;;;;;;5.78;1.60;;;;;;;31.96;37.93;99513.69;5124415;28;20365;-70
2022/07/09 08:26:21;;;;;;;4.20;1.60;;;;;;;32.48;36.17;99507.78;5124231;28;20107;-70
2022/07/09 08:28:47;;;;;;;4.28;1.65;;;;;;;32.21;39.39;99507.63;5124252;28;20030;-70
2022/07/09 08:31:14;;;;;;;6.05;1.70;;;;;;;32.38;39.09;99503.34;5124291;28;20095;-70
2022/07/09 08:33:39;;;;;;;4.22;1.42;;;;;;;33.08;36.62;99515.56;5124234;28;20268;-70
2022/07/09 08:36:04;;;;;;;5.32;1.70;;;;;;;32.48;38.46;99507.78;5124226;28;20020;-70
2022/07/09 08:38:31;;;;;;;4.22;1.58;;;;;;;32.53;36.76;99508.22;5124180;28;20019;-70
2022/07/09 08:40:59;;;;;;;6.88;1.50;;;;;;;32.18;38.22;99491.59;5124201;28;20039;-70
2022/07/09 08:43:26;;;;;;;3.80;1.35;;;;;;;32.91;35.36;99497.25;5124315;28;20030;-70
2022/07/09 08:45:53;;;;;;;6.40;1.40;;;;;;;33.24;34.84;99501.25;5124364;28;20023;-70
2022/07/09 08:48:19;;;;;;;8.77;1.63;;;;;;;32.82;35.42;99497.22;5124144;28;20023;-70
2022/07/09 08:50:44;;;;;;;6.10;1.88;;;;;;;32.84;36.37;99496.06;5124110;28;20346;-70
2022/07/09 08:53:12;;;;;;;7.22;1.80;;;;;;;32.81;35.69;99490.91;5124048;28;20047;-70
2022/07/09 08:55:39;;;;;;;12.23;1.70;;;;;;;34.01;36.03;99501.69;5124117;28;20019;-70
2022/07/09 08:58:04;;;;;;;4.70;1.75;;;;;;;34.47;33.82;99496.81;5124314;28;20245;-70
2022/07/09 09:00:31;;;;;;;6.72;1.63;;;;;;;32.33;36.97;99484.72;5124038;28;20023;-70
2022/07/09 09:02:57;;;;;;;3.75;1.15;;;;;;;31.13;38.22;99479.66;5126660;28;20026;-70
2022/07/09 09:05:22;;;;;;;6.05;1.40;;;;;;;30.34;39.10;99474.06;5127939;28;20023;-70
2022/07/09 09:07:48;;;;;;;6.85;1.55;;;;;;;29.29;41.26;99466.78;5127944;28;20019;-70
2022/07/09 09:10:29;;;;;;;5.82;1.13;;;;;;;29.53;40.65;99464.72;5127921;28;20345;-70
2022/07/09 09:13:01;;;;;;;3.87;1.30;;;;;;;30.31;39.71;99468.88;5127760;28;20042;-70
2022/07/09 09:15:28;;;;;;;3.72;1.10;;;;;;;31.60;36.67;99481.63;5127714;28;20019;-70
2022/07/09 09:17:53;;;;;;;3.05;1.23;;;;;;;32.16;36.83;99479.97;5127910;28;20299;-70
2022/07/09 09:20:19;;;;;;;3.08;1.25;;;;;;;32.65;35.88;99478.94;5127579;28;20095;-70
2022/07/09 09:22:59;;;;;;;4.07;1.27;;;;;;;32.57;36.59;99473.34;5127557;28;20022;-70
2022/07/09 09:25:24;;;;;;;2.20;1.30;;;;;;;32.33;34.08;99462.91;5127609;28;20035;-70
2022/07/09 09:27:55;;;;;;;3.75;1.40;;;;;;;32.28;34.00;99459.75;5127385;28;20215;-70
2022/07/09 09:30:21;;;;;;;2.58;1.23;;;;;;;33.02;34.53;99471.63;5127476;28;20023;-70
2022/07/09 09:33:03;;;;;;;6.82;1.75;;;;;;;33.50;33.21;99471.41;5127260;28;20029;-70
2022/07/09 09:35:42;;;;;;;4.00;1.20;;;;;;;31.72;34.12;99452.41;5127322;28;20020;-70
2022/07/09 09:38:08;;;;;;;3.15;1.05;;;;;;;30.49;38.60;99449.13;5127255;28;20034;-70
2022/07/09 09:40:35;;;;;;;5.28;1.40;;;;;;;29.54;39.64;99442.06;5127282;28;20024;-70
2022/07/09 09:43:02;;;;;;;3.42;1.42;;;;;;;30.79;38.03;99453.75;5127212;28;20026;-70
2022/07/09 09:45:28;;;;;;;5.53;1.30;;;;;;;29.88;39.79;99436.38;5127342;28;20350;-70
2022/07/09 09:47:53;;;;;;;5.20;1.40;;;;;;;28.77;42.07;99422.22;5127276;28;20085;-70
2022/07/09 09:50:24;;;;;;;4.40;1.40;;;;;;;28.03;43.07;99419.13;5127132;28;20023;-70
2022/07/09 09:52:51;;;;;;;4.47;1.40;;;;;;;27.60;45.11;99409.88;5108906;28;20083;-71
2022/07/09 09:55:18;;;;;;;6.88;1.75;;;;;;;29.94;41.97;99448.56;5126982;28;20034;-70
2022/07/09 09:57:44;;;;;;;3.50;1.02;;;;;;;31.54;39.32;99460.41;5126862;28;20051;-70
2022/07/09 10:00:15;;;;;;;6.95;1.30;;;;;;;32.30;35.50;99448.72;5126783;28;20315;-70
2022/07/09 10:02:48;;;;;;;3.28;1.10;;;;;;;31.39;37.03;99436.47;5126791;28;20019;-70
2022/07/09 10:05:13;;;;;;;3.30;1.00;;;;;;;29.62;38.78;99424.16;5126743;28;20030;-70
2022/07/09 10:07:40;;;;;;;4.20;1.67;;;;;;;28.48;41.01;99412.84;5126750;28;20019;-70
2022/07/09 10:10:06;;;;;;;5.47;1.40;;;;;;;29.17;40.20;99423.41;5126698;28;20076;-70
2022/07/09 10:12:35;;;;;;;3.95;1.20;;;;;;;30.81;37.46;99446.28;5126500;28;20023;-70
2022/07/09 10:15:01;;;;;;;4.68;1.10;;;;;;;31.31;37.01;99442.63;5125879;28;20322;-70
2022/07/09 10:17:27;;;;;;;8.05;1.20;;;;;;;31.90;36.64;99437.13;5126451;28;20027;-70
2022/07/09 10:19:55;;;;;;;4.22;1.38;;;;;;;32.93;34.91;99451.56;5126447;28;20026;-70
2022/07/09 10:22:41;;;;;;;3.53;1.00;;;;;;;32.72;33.96;99431.84;5126647;28;20068;-70
2022/07/09 10:25:08;;;;;;;2.97;1.27;;;;;;;33.45;35.28;99440.97;5126245;28;20047;-70
2022/07/09 10:27:45;;;;;;;2.25;1.10;;;;;;;33.37;32.57;99439.00;5126114;28;20047;-70
2022/07/09 10:30:30;;;;;;;4.65;1.30;;;;;;;33.19;32.75;99429.91;5126224;28;20030;-70
2022/07/09 10:33:06;;;;;;;3.85;1.27;;;;;;;31.26;34.88;99422.25;5126326;28;20090;-70
2022/07/09 10:35:40;;;;;;;2.83;1.27;;;;;;;31.80;34.43;99414.47;5126424;28;20034;-70
2022/07/09 10:38:06;;;;;;;4.25;1.33;;;;;;;32.01;37.05;99416.03;5126115;28;20316;-70
2022/07/09 10:40:41;;;;;;;7.35;1.80;;;;;;;32.58;36.58;99418.66;5126228;28;20051;-70
2022/07/09 10:43:06;;;;;;;6.93;1.98;;;;;;;31.62;36.95;99406.16;5126032;28;20022;-70
2022/07/09 10:45:36;;;;;;;3.38;1.00;;;;;;;32.03;35.34;99410.44;5126002;28;20038;-70
2022/07/09 10:48:04;;;;;;;4.57;1.42;;;;;;;30.45;38.04;99395.16;5125849;28;20019;-70
2022/07/09 10:50:31;;;;;;;4.10;1.40;;;;;;;29.66;39.42;99389.47;5126251;28;20015;-70
2022/07/09 10:52:58;;;;;;;3.92;1.58;;;;;;;30.32;38.55;99408.13;5125813;28;20327;-71
2022/07/09 10:55:25;;;;;;;3.80;1.40;;;;;;;30.77;37.74;99402.22;5126061;28;20023;-70
2022/07/09 10:57:51;;;;;;;2.95;1.23;;;;;;;31.30;38.36;99407.41;5125849;28;20325;-70
2022/07/09 11:00:19;;;;;;;5.25;1.40;;;;;;;31.58;36.43;99412.88;5125938;28;20065;-69
2022/07/09 11:02:53;;;;;;;3.13;1.30;;;;;;;31.59;34.40;99390.09;5125973;28;20248;-69
2022/07/09 11:05:18;;;;;;;8.43;3.97;;;;;;;30.74;37.03;99382.59;5125925;28;20023;-70
2022/07/09 11:07:54;;;;;;;4.18;2.15;;;;;;;30.65;39.13;99386.09;5125759;28;20031;-70
2022/07/09 11:10:20;;;;;;;9.80;4.65;;;;;;;30.93;38.09;99379.94;5125686;28;20030;-70
2022/07/09 11:12:49;;;;;;;6.45;2.28;;;;;;;30.96;38.26;99379.66;5125601;28;20078;-70
2022/07/09 11:15:21;;;;;;;8.95;4.90;;;;;;;31.12;36.15;99371.81;5125740;28;20023;-70
2022/07/09 11:18:00;;;;;;;4.70;2.45;;;;;;;31.47;39.21;99374.91;5125939;28;20203;-70
2022/07/09 11:20:32;;;;;;;2.83;1.40;;;;;;;32.05;36.32;99376.59;5125927;28;20337;-70
2022/07/09 11:23:00;;;;;;;2.92;1.30;;;;;;;31.79;37.01;99363.72;5125618;28;20020;-70
2022/07/09 11:25:26;;;;;;;4.97;1.52;;;;;;;31.97;35.58;99372.88;5125020;28;20068;-70